NCAR-RAP Real-Time Weather Data

Output produced by METARs form (06 May 2021  15:13 UTC)
found at http://weather.rap.ucar.edu/surface/
 
KWMC 061456Z AUTO 00000KT 10SM CLR 14/M01 A3008 RMK AO2 SLP148 T01441011 51007
KWMC 061356Z AUTO 09003KT 10SM CLR 08/M02 A3007 RMK AO2 SLP150 T00831017
KWMC 061256Z AUTO 00000KT 10SM CLR 05/M03 A3006 RMK AO2 SLP147 T00501028
KWMC 061156Z AUTO 15005KT 10SM CLR 04/M03 A3005 RMK AO2 SLP146 T00391033 10167 20028 53005
KWMC 061056Z AUTO 00000KT 10SM CLR 05/M04 A3004 RMK AO2 SLP140 T00501039
KWMC 060956Z AUTO 22003KT 10SM CLR 08/M03 A3004 RMK AO2 SLP137 T00781033
KWMC 060856Z AUTO 13007KT 10SM CLR 08/M03 A3003 RMK AO2 SLP137 T00831033 58001
KWMC 060756Z AUTO 12006KT 10SM CLR 13/M03 A3004 RMK AO2 SLP135 T01281028 402780072
KWMC 060656Z AUTO 09008KT 10SM CLR 16/M03 A3003 RMK AO2 SLP133 T01561028
KWMC 060556Z AUTO 07012KT 10SM CLR 16/M03 A3004 RMK AO2 SLP134 T01611028 10278 20161 51010
KWMC 060456Z AUTO 07008KT 10SM CLR 19/M03 A3003 RMK AO2 SLP131 T01891033
KWMC 060356Z AUTO 05008KT 10SM CLR 20/M03 A3002 RMK AO2 SLP129 T02001028
KWMC 060256Z AUTO 04008KT 10SM CLR 22/M02 A3000 RMK AO2 SLP126 T02221022 56009